sensor_id;sensor_type;location;lat;lon;timestamp;P1;durP1;ratioP1;P2;durP2;ratioP2
6033;SDS011;3045;43.226;27.858;2022-09-09T00:00:57;2.67;;;2.50;;
6033;SDS011;3045;43.226;27.858;2022-09-09T00:03:37;2.90;;;2.40;;
6033;SDS011;3045;43.226;27.858;2022-09-09T00:06:11;2.30;;;2.10;;
6033;SDS011;3045;43.226;27.858;2022-09-09T00:08:49;2.20;;;2.10;;
6033;SDS011;3045;43.226;27.858;2022-09-09T00:11:26;3.00;;;2.80;;
6033;SDS011;3045;43.226;27.858;2022-09-09T00:14:00;2.97;;;2.77;;
6033;SDS011;3045;43.226;27.858;2022-09-09T00:16:34;2.30;;;2.20;;
6033;SDS011;3045;43.226;27.858;2022-09-09T00:19:11;2.60;;;2.50;;
6033;SDS011;3045;43.226;27.858;2022-09-09T00:21:46;2.17;;;1.97;;
6033;SDS011;3045;43.226;27.858;2022-09-09T00:24:23;2.40;;;2.30;;
6033;SDS011;3045;43.226;27.858;2022-09-09T00:26:55;1.90;;;1.80;;
6033;SDS011;3045;43.226;27.858;2022-09-09T00:29:28;2.60;;;2.40;;
6033;SDS011;3045;43.226;27.858;2022-09-09T00:32:07;2.57;;;2.47;;
6033;SDS011;3045;43.226;27.858;2022-09-09T00:34:41;2.10;;;2.00;;
6033;SDS011;3045;43.226;27.858;2022-09-09T00:37:13;2.73;;;2.50;;
6033;SDS011;3045;43.226;27.858;2022-09-09T00:39:41;2.87;;;2.67;;
6033;SDS011;3045;43.226;27.858;2022-09-09T00:42:13;2.80;;;2.17;;
6033;SDS011;3045;43.226;27.858;2022-09-09T00:44:50;2.80;;;2.70;;
6033;SDS011;3045;43.226;27.858;2022-09-09T00:50:15;2.43;;;2.30;;
6033;SDS011;3045;43.226;27.858;2022-09-09T00:52:53;2.50;;;2.30;;
6033;SDS011;3045;43.226;27.858;2022-09-09T00:55:30;2.50;;;2.40;;
6033;SDS011;3045;43.226;27.858;2022-09-09T00:58:06;2.93;;;2.47;;
6033;SDS011;3045;43.226;27.858;2022-09-09T01:00:35;3.30;;;2.17;;
6033;SDS011;3045;43.226;27.858;2022-09-09T01:03:19;2.60;;;1.97;;
6033;SDS011;3045;43.226;27.858;2022-09-09T01:05:57;3.20;;;2.10;;
6033;SDS011;3045;43.226;27.858;2022-09-09T01:08:34;2.93;;;1.83;;
6033;SDS011;3045;43.226;27.858;2022-09-09T01:11:21;3.53;;;2.13;;
6033;SDS011;3045;43.226;27.858;2022-09-09T01:13:53;2.10;;;2.00;;
6033;SDS011;3045;43.226;27.858;2022-09-09T01:16:25;1.80;;;1.70;;
6033;SDS011;3045;43.226;27.858;2022-09-09T01:18:53;1.83;;;1.73;;
6033;SDS011;3045;43.226;27.858;2022-09-09T01:21:25;2.43;;;2.23;;
6033;SDS011;3045;43.226;27.858;2022-09-09T01:24:17;4.37;;;2.40;;
6033;SDS011;3045;43.226;27.858;2022-09-09T01:26:55;2.30;;;2.10;;
6033;SDS011;3045;43.226;27.858;2022-09-09T01:29:24;2.20;;;1.80;;
6033;SDS011;3045;43.226;27.858;2022-09-09T01:31:52;2.83;;;2.00;;
6033;SDS011;3045;43.226;27.858;2022-09-09T01:34:22;1.97;;;1.87;;
6033;SDS011;3045;43.226;27.858;2022-09-09T01:36:51;3.27;;;2.50;;
6033;SDS011;3045;43.226;27.858;2022-09-09T01:39:24;4.43;;;2.27;;
6033;SDS011;3045;43.226;27.858;2022-09-09T01:41:51;2.17;;;2.07;;
6033;SDS011;3045;43.226;27.858;2022-09-09T01:44:20;2.03;;;1.93;;
6033;SDS011;3045;43.226;27.858;2022-09-09T01:46:47;5.83;;;2.33;;
6033;SDS011;3045;43.226;27.858;2022-09-09T01:49:16;2.00;;;1.90;;
6033;SDS011;3045;43.226;27.858;2022-09-09T01:51:43;3.73;;;2.30;;
6033;SDS011;3045;43.226;27.858;2022-09-09T01:54:12;2.63;;;2.43;;
6033;SDS011;3045;43.226;27.858;2022-09-09T01:56:40;2.33;;;2.13;;
6033;SDS011;3045;43.226;27.858;2022-09-09T02:02:10;2.50;;;2.00;;
6033;SDS011;3045;43.226;27.858;2022-09-09T02:04:41;1.90;;;1.80;;
6033;SDS011;3045;43.226;27.858;2022-09-09T02:07:14;3.23;;;2.10;;
6033;SDS011;3045;43.226;27.858;2022-09-09T02:09:49;3.50;;;1.90;;
6033;SDS011;3045;43.226;27.858;2022-09-09T02:12:23;3.20;;;2.10;;
6033;SDS011;3045;43.226;27.858;2022-09-09T02:14:56;2.30;;;2.10;;
6033;SDS011;3045;43.226;27.858;2022-09-09T02:17:28;2.67;;;2.17;;
6033;SDS011;3045;43.226;27.858;2022-09-09T02:19:59;4.40;;;2.70;;
6033;SDS011;3045;43.226;27.858;2022-09-09T02:22:31;4.43;;;1.97;;
6033;SDS011;3045;43.226;27.858;2022-09-09T02:25:00;4.80;;;2.50;;
6033;SDS011;3045;43.226;27.858;2022-09-09T02:27:30;9.20;;;2.33;;
6033;SDS011;3045;43.226;27.858;2022-09-09T02:29:59;6.00;;;2.13;;
6033;SDS011;3045;43.226;27.858;2022-09-09T02:32:27;4.90;;;2.07;;
6033;SDS011;3045;43.226;27.858;2022-09-09T02:35:00;2.07;;;1.97;;
6033;SDS011;3045;43.226;27.858;2022-09-09T02:37:32;2.40;;;2.20;;
6033;SDS011;3045;43.226;27.858;2022-09-09T02:40:02;2.27;;;2.17;;
6033;SDS011;3045;43.226;27.858;2022-09-09T02:42:32;2.30;;;2.20;;
6033;SDS011;3045;43.226;27.858;2022-09-09T02:45:06;2.23;;;2.13;;
6033;SDS011;3045;43.226;27.858;2022-09-09T02:47:35;4.00;;;2.27;;
6033;SDS011;3045;43.226;27.858;2022-09-09T02:50:11;4.40;;;2.90;;
6033;SDS011;3045;43.226;27.858;2022-09-09T02:52:43;3.50;;;2.50;;
6033;SDS011;3045;43.226;27.858;2022-09-09T02:55:18;5.20;;;3.10;;
6033;SDS011;3045;43.226;27.858;2022-09-09T02:57:50;3.33;;;3.03;;
6033;SDS011;3045;43.226;27.858;2022-09-09T03:00:23;6.53;;;2.90;;
6033;SDS011;3045;43.226;27.858;2022-09-09T03:02:51;5.97;;;3.00;;
6033;SDS011;3045;43.226;27.858;2022-09-09T03:05:19;3.73;;;2.40;;
6033;SDS011;3045;43.226;27.858;2022-09-09T03:07:46;5.80;;;2.90;;
6033;SDS011;3045;43.226;27.858;2022-09-09T03:10:14;2.27;;;2.17;;
6033;SDS011;3045;43.226;27.858;2022-09-09T03:12:41;6.17;;;2.87;;
6033;SDS011;3045;43.226;27.858;2022-09-09T03:15:08;6.00;;;3.03;;
6033;SDS011;3045;43.226;27.858;2022-09-09T03:17:37;2.87;;;2.53;;
6033;SDS011;3045;43.226;27.858;2022-09-09T03:20:04;8.07;;;2.67;;
6033;SDS011;3045;43.226;27.858;2022-09-09T03:22:32;8.70;;;2.83;;
6033;SDS011;3045;43.226;27.858;2022-09-09T03:24:59;5.83;;;2.40;;
6033;SDS011;3045;43.226;27.858;2022-09-09T03:27:26;4.90;;;2.87;;
6033;SDS011;3045;43.226;27.858;2022-09-09T03:29:53;4.50;;;2.90;;
6033;SDS011;3045;43.226;27.858;2022-09-09T03:32:21;9.30;;;2.37;;
6033;SDS011;3045;43.226;27.858;2022-09-09T03:34:50;5.87;;;2.97;;
6033;SDS011;3045;43.226;27.858;2022-09-09T03:37:18;2.70;;;2.47;;
6033;SDS011;3045;43.226;27.858;2022-09-09T03:39:45;4.67;;;2.60;;
6033;SDS011;3045;43.226;27.858;2022-09-09T03:42:15;2.90;;;2.63;;
6033;SDS011;3045;43.226;27.858;2022-09-09T03:44:44;6.53;;;3.17;;
6033;SDS011;3045;43.226;27.858;2022-09-09T03:47:15;8.70;;;3.00;;
6033;SDS011;3045;43.226;27.858;2022-09-09T03:49:42;3.37;;;2.93;;
6033;SDS011;3045;43.226;27.858;2022-09-09T03:52:11;3.33;;;2.77;;
6033;SDS011;3045;43.226;27.858;2022-09-09T03:54:38;4.43;;;3.60;;
6033;SDS011;3045;43.226;27.858;2022-09-09T03:57:06;12.67;;;3.90;;
6033;SDS011;3045;43.226;27.858;2022-09-09T03:59:33;9.57;;;3.70;;
6033;SDS011;3045;43.226;27.858;2022-09-09T04:02:00;6.57;;;3.63;;
6033;SDS011;3045;43.226;27.858;2022-09-09T04:04:27;4.53;;;3.07;;
6033;SDS011;3045;43.226;27.858;2022-09-09T04:06:54;5.53;;;3.07;;
6033;SDS011;3045;43.226;27.858;2022-09-09T04:09:22;10.77;;;2.70;;
6033;SDS011;3045;43.226;27.858;2022-09-09T04:11:49;3.50;;;2.20;;
6033;SDS011;3045;43.226;27.858;2022-09-09T04:14:16;3.57;;;3.27;;
6033;SDS011;3045;43.226;27.858;2022-09-09T04:16:43;3.03;;;2.77;;
6033;SDS011;3045;43.226;27.858;2022-09-09T04:19:10;5.67;;;2.50;;
6033;SDS011;3045;43.226;27.858;2022-09-09T04:21:39;7.03;;;3.00;;
6033;SDS011;3045;43.226;27.858;2022-09-09T04:24:06;8.93;;;4.77;;
6033;SDS011;3045;43.226;27.858;2022-09-09T04:26:35;5.60;;;2.40;;
6033;SDS011;3045;43.226;27.858;2022-09-09T04:29:03;12.40;;;3.40;;
6033;SDS011;3045;43.226;27.858;2022-09-09T04:31:32;6.57;;;2.83;;
6033;SDS011;3045;43.226;27.858;2022-09-09T04:34:00;3.57;;;3.20;;
6033;SDS011;3045;43.226;27.858;2022-09-09T04:36:30;14.00;;;4.00;;
6033;SDS011;3045;43.226;27.858;2022-09-09T04:38:58;6.45;;;3.55;;
6033;SDS011;3045;43.226;27.858;2022-09-09T04:41:26;9.02;;;3.83;;
6033;SDS011;3045;43.226;27.858;2022-09-09T04:43:55;5.10;;;3.30;;
6033;SDS011;3045;43.226;27.858;2022-09-09T04:46:22;21.08;;;4.78;;
6033;SDS011;3045;43.226;27.858;2022-09-09T04:48:49;7.72;;;3.30;;
6033;SDS011;3045;43.226;27.858;2022-09-09T04:51:17;12.90;;;3.78;;
6033;SDS011;3045;43.226;27.858;2022-09-09T04:53:45;3.88;;;1.60;;
6033;SDS011;3045;43.226;27.858;2022-09-09T04:56:13;5.05;;;2.97;;
6033;SDS011;3045;43.226;27.858;2022-09-09T04:58:41;9.57;;;3.03;;
6033;SDS011;3045;43.226;27.858;2022-09-09T05:01:10;8.05;;;3.50;;
6033;SDS011;3045;43.226;27.858;2022-09-09T05:03:38;10.95;;;3.88;;
6033;SDS011;3045;43.226;27.858;2022-09-09T05:06:07;15.85;;;5.22;;
6033;SDS011;3045;43.226;27.858;2022-09-09T05:08:35;24.60;;;5.93;;
6033;SDS011;3045;43.226;27.858;2022-09-09T05:11:03;22.30;;;5.70;;
6033;SDS011;3045;43.226;27.858;2022-09-09T05:13:30;12.15;;;3.20;;
6033;SDS011;3045;43.226;27.858;2022-09-09T05:15:57;6.40;;;2.15;;
6033;SDS011;3045;43.226;27.858;2022-09-09T05:18:26;4.13;;;2.05;;
6033;SDS011;3045;43.226;27.858;2022-09-09T05:20:58;4.45;;;2.30;;
6033;SDS011;3045;43.226;27.858;2022-09-09T05:23:25;5.15;;;1.65;;
6033;SDS011;3045;43.226;27.858;2022-09-09T05:25:55;3.95;;;1.73;;
6033;SDS011;3045;43.226;27.858;2022-09-09T05:28:23;2.53;;;1.65;;
6033;SDS011;3045;43.226;27.858;2022-09-09T05:30:57;2.25;;;2.05;;
6033;SDS011;3045;43.226;27.858;2022-09-09T05:33:27;5.82;;;1.77;;
6033;SDS011;3045;43.226;27.858;2022-09-09T05:35:55;8.48;;;2.20;;
6033;SDS011;3045;43.226;27.858;2022-09-09T05:38:23;2.28;;;1.90;;
6033;SDS011;3045;43.226;27.858;2022-09-09T05:40:51;2.05;;;1.40;;
6033;SDS011;3045;43.226;27.858;2022-09-09T05:43:21;3.70;;;1.65;;
6033;SDS011;3045;43.226;27.858;2022-09-09T05:45:57;3.97;;;1.80;;
6033;SDS011;3045;43.226;27.858;2022-09-09T05:48:29;3.83;;;1.45;;
6033;SDS011;3045;43.226;27.858;2022-09-09T05:50:57;1.83;;;1.70;;
6033;SDS011;3045;43.226;27.858;2022-09-09T05:53:24;4.32;;;1.75;;
6033;SDS011;3045;43.226;27.858;2022-09-09T05:55:57;4.35;;;1.70;;
6033;SDS011;3045;43.226;27.858;2022-09-09T05:58:26;5.55;;;1.90;;
6033;SDS011;3045;43.226;27.858;2022-09-09T06:00:59;2.25;;;1.58;;
6033;SDS011;3045;43.226;27.858;2022-09-09T06:03:28;3.75;;;2.40;;
6033;SDS011;3045;43.226;27.858;2022-09-09T06:05:59;5.10;;;2.13;;
6033;SDS011;3045;43.226;27.858;2022-09-09T06:08:26;7.47;;;2.45;;
6033;SDS011;3045;43.226;27.858;2022-09-09T06:11:00;3.40;;;2.03;;
6033;SDS011;3045;43.226;27.858;2022-09-09T06:13:28;2.10;;;1.83;;
6033;SDS011;3045;43.226;27.858;2022-09-09T06:15:56;2.75;;;1.50;;
6033;SDS011;3045;43.226;27.858;2022-09-09T06:18:23;2.75;;;1.90;;
6033;SDS011;3045;43.226;27.858;2022-09-09T06:20:56;6.22;;;1.90;;
6033;SDS011;3045;43.226;27.858;2022-09-09T06:23:27;3.15;;;1.55;;
6033;SDS011;3045;43.226;27.858;2022-09-09T06:26:00;4.50;;;1.90;;
6033;SDS011;3045;43.226;27.858;2022-09-09T06:28:30;7.13;;;1.90;;
6033;SDS011;3045;43.226;27.858;2022-09-09T06:30:58;9.77;;;2.30;;
6033;SDS011;3045;43.226;27.858;2022-09-09T06:33:25;5.55;;;2.55;;
6033;SDS011;3045;43.226;27.858;2022-09-09T06:35:53;2.00;;;1.77;;
6033;SDS011;3045;43.226;27.858;2022-09-09T06:38:23;4.28;;;2.53;;
6033;SDS011;3045;43.226;27.858;2022-09-09T06:40:51;1.88;;;1.55;;
6033;SDS011;3045;43.226;27.858;2022-09-09T06:43:20;3.40;;;1.70;;
6033;SDS011;3045;43.226;27.858;2022-09-09T06:45:52;7.03;;;2.72;;
6033;SDS011;3045;43.226;27.858;2022-09-09T06:48:20;9.10;;;2.10;;
6033;SDS011;3045;43.226;27.858;2022-09-09T06:50:47;6.38;;;1.67;;
6033;SDS011;3045;43.226;27.858;2022-09-09T06:53:16;4.85;;;2.10;;
6033;SDS011;3045;43.226;27.858;2022-09-09T06:55:45;3.20;;;2.00;;
6033;SDS011;3045;43.226;27.858;2022-09-09T06:58:13;7.30;;;2.53;;
6033;SDS011;3045;43.226;27.858;2022-09-09T07:00:43;2.17;;;1.70;;
6033;SDS011;3045;43.226;27.858;2022-09-09T07:03:15;3.45;;;1.60;;
6033;SDS011;3045;43.226;27.858;2022-09-09T07:05:42;4.55;;;1.70;;
6033;SDS011;3045;43.226;27.858;2022-09-09T07:08:10;3.58;;;1.38;;
6033;SDS011;3045;43.226;27.858;2022-09-09T07:10:37;5.18;;;1.70;;
6033;SDS011;3045;43.226;27.858;2022-09-09T07:13:06;1.65;;;1.30;;
6033;SDS011;3045;43.226;27.858;2022-09-09T07:15:32;2.42;;;1.42;;
6033;SDS011;3045;43.226;27.858;2022-09-09T07:18:01;1.50;;;1.40;;
6033;SDS011;3045;43.226;27.858;2022-09-09T07:20:28;3.85;;;1.60;;
6033;SDS011;3045;43.226;27.858;2022-09-09T07:22:55;1.15;;;1.05;;
6033;SDS011;3045;43.226;27.858;2022-09-09T07:25:23;1.50;;;1.27;;
6033;SDS011;3045;43.226;27.858;2022-09-09T07:27:51;1.30;;;1.20;;
6033;SDS011;3045;43.226;27.858;2022-09-09T07:30:20;3.00;;;1.48;;
6033;SDS011;3045;43.226;27.858;2022-09-09T07:32:47;2.65;;;1.08;;
6033;SDS011;3045;43.226;27.858;2022-09-09T07:35:14;4.03;;;1.42;;
6033;SDS011;3045;43.226;27.858;2022-09-09T07:37:41;4.03;;;1.40;;
6033;SDS011;3045;43.226;27.858;2022-09-09T07:40:08;2.05;;;1.40;;
6033;SDS011;3045;43.226;27.858;2022-09-09T07:42:35;4.72;;;1.35;;
6033;SDS011;3045;43.226;27.858;2022-09-09T07:45:02;2.55;;;1.38;;
6033;SDS011;3045;43.226;27.858;2022-09-09T07:47:32;3.15;;;1.52;;
6033;SDS011;3045;43.226;27.858;2022-09-09T07:49:59;3.58;;;1.52;;
6033;SDS011;3045;43.226;27.858;2022-09-09T07:52:26;4.13;;;1.38;;
6033;SDS011;3045;43.226;27.858;2022-09-09T07:54:53;6.18;;;1.80;;
6033;SDS011;3045;43.226;27.858;2022-09-09T07:57:21;3.35;;;1.35;;
6033;SDS011;3045;43.226;27.858;2022-09-09T07:59:48;6.10;;;1.80;;
6033;SDS011;3045;43.226;27.858;2022-09-09T08:02:15;2.70;;;1.70;;
6033;SDS011;3045;43.226;27.858;2022-09-09T08:04:44;1.52;;;1.42;;
6033;SDS011;3045;43.226;27.858;2022-09-09T08:07:11;1.63;;;1.38;;
6033;SDS011;3045;43.226;27.858;2022-09-09T08:09:38;1.77;;;1.63;;
6033;SDS011;3045;43.226;27.858;2022-09-09T08:12:06;1.45;;;1.33;;
6033;SDS011;3045;43.226;27.858;2022-09-09T08:14:33;1.38;;;1.27;;
6033;SDS011;3045;43.226;27.858;2022-09-09T08:17:00;1.40;;;1.02;;
6033;SDS011;3045;43.226;27.858;2022-09-09T08:19:27;4.65;;;1.30;;
6033;SDS011;3045;43.226;27.858;2022-09-09T08:21:56;1.85;;;1.38;;
6033;SDS011;3045;43.226;27.858;2022-09-09T08:24:23;1.00;;;1.00;;
6033;SDS011;3045;43.226;27.858;2022-09-09T08:26:51;3.90;;;1.27;;
6033;SDS011;3045;43.226;27.858;2022-09-09T08:29:18;6.53;;;1.67;;
6033;SDS011;3045;43.226;27.858;2022-09-09T08:31:46;4.22;;;1.42;;
6033;SDS011;3045;43.226;27.858;2022-09-09T08:34:15;1.55;;;1.40;;
6033;SDS011;3045;43.226;27.858;2022-09-09T08:36:45;4.47;;;2.10;;
6033;SDS011;3045;43.226;27.858;2022-09-09T08:39:16;1.80;;;1.30;;
6033;SDS011;3045;43.226;27.858;2022-09-09T08:41:49;3.33;;;1.38;;
6033;SDS011;3045;43.226;27.858;2022-09-09T08:44:46;4.88;;;1.58;;
6033;SDS011;3045;43.226;27.858;2022-09-09T08:47:24;6.78;;;1.63;;
6033;SDS011;3045;43.226;27.858;2022-09-09T08:50:03;3.17;;;1.65;;
6033;SDS011;3045;43.226;27.858;2022-09-09T08:52:40;1.65;;;1.10;;
6033;SDS011;3045;43.226;27.858;2022-09-09T08:55:22;2.30;;;1.70;;
6033;SDS011;3045;43.226;27.858;2022-09-09T08:57:55;1.27;;;1.17;;
6033;SDS011;3045;43.226;27.858;2022-09-09T09:00:27;3.65;;;1.00;;
6033;SDS011;3045;43.226;27.858;2022-09-09T09:03:05;6.68;;;1.30;;
6033;SDS011;3045;43.226;27.858;2022-09-09T09:05:44;3.15;;;1.30;;
6033;SDS011;3045;43.226;27.858;2022-09-09T09:08:19;1.00;;;1.00;;
6033;SDS011;3045;43.226;27.858;2022-09-09T09:10:56;3.63;;;1.52;;
6033;SDS011;3045;43.226;27.858;2022-09-09T09:13:26;2.35;;;1.25;;
6033;SDS011;3045;43.226;27.858;2022-09-09T09:16:03;1.10;;;0.98;;
6033;SDS011;3045;43.226;27.858;2022-09-09T09:18:39;2.08;;;1.42;;
6033;SDS011;3045;43.226;27.858;2022-09-09T09:21:08;2.30;;;1.00;;
6033;SDS011;3045;43.226;27.858;2022-09-09T09:23:40;1.23;;;1.23;;
6033;SDS011;3045;43.226;27.858;2022-09-09T09:26:13;1.30;;;1.30;;
6033;SDS011;3045;43.226;27.858;2022-09-09T09:28:40;1.13;;;1.13;;
6033;SDS011;3045;43.226;27.858;2022-09-09T09:31:08;2.85;;;1.70;;
6033;SDS011;3045;43.226;27.858;2022-09-09T09:33:39;1.73;;;1.25;;
6033;SDS011;3045;43.226;27.858;2022-09-09T09:36:13;1.30;;;1.20;;
6033;SDS011;3045;43.226;27.858;2022-09-09T09:38:51;1.23;;;1.13;;
6033;SDS011;3045;43.226;27.858;2022-09-09T09:41:32;4.15;;;1.20;;
6033;SDS011;3045;43.226;27.858;2022-09-09T09:44:01;1.65;;;1.20;;
6033;SDS011;3045;43.226;27.858;2022-09-09T09:46:29;1.45;;;1.27;;
6033;SDS011;3045;43.226;27.858;2022-09-09T09:48:57;2.25;;;1.20;;
6033;SDS011;3045;43.226;27.858;2022-09-09T09:51:26;2.65;;;1.35;;
6033;SDS011;3045;43.226;27.858;2022-09-09T09:53:54;6.15;;;1.30;;
6033;SDS011;3045;43.226;27.858;2022-09-09T09:56:41;1.33;;;1.20;;
6033;SDS011;3045;43.226;27.858;2022-09-09T09:59:19;4.10;;;1.15;;
6033;SDS011;3045;43.226;27.858;2022-09-09T10:02:05;3.55;;;1.20;;
6033;SDS011;3045;43.226;27.858;2022-09-09T10:04:41;3.80;;;1.33;;
6033;SDS011;3045;43.226;27.858;2022-09-09T10:07:10;1.90;;;1.30;;
6033;SDS011;3045;43.226;27.858;2022-09-09T10:09:37;2.78;;;1.30;;
6033;SDS011;3045;43.226;27.858;2022-09-09T10:12:08;5.55;;;1.40;;
6033;SDS011;3045;43.226;27.858;2022-09-09T10:14:53;5.38;;;1.00;;
6033;SDS011;3045;43.226;27.858;2022-09-09T10:17:28;3.83;;;2.05;;
6033;SDS011;3045;43.226;27.858;2022-09-09T10:20:12;3.83;;;1.77;;
6033;SDS011;3045;43.226;27.858;2022-09-09T10:22:49;1.27;;;1.17;;
6033;SDS011;3045;43.226;27.858;2022-09-09T10:25:20;4.47;;;1.15;;
6033;SDS011;3045;43.226;27.858;2022-09-09T10:28:18;1.55;;;1.38;;
6033;SDS011;3045;43.226;27.858;2022-09-09T10:31:09;1.05;;;1.05;;
6033;SDS011;3045;43.226;27.858;2022-09-09T10:33:47;1.88;;;1.50;;
6033;SDS011;3045;43.226;27.858;2022-09-09T10:36:19;2.75;;;1.33;;
6033;SDS011;3045;43.226;27.858;2022-09-09T10:38:51;2.22;;;1.45;;
6033;SDS011;3045;43.226;27.858;2022-09-09T10:41:26;4.80;;;1.60;;
6033;SDS011;3045;43.226;27.858;2022-09-09T10:44:12;4.55;;;1.30;;
6033;SDS011;3045;43.226;27.858;2022-09-09T10:46:50;2.45;;;1.40;;
6033;SDS011;3045;43.226;27.858;2022-09-09T10:49:30;3.97;;;1.27;;
6033;SDS011;3045;43.226;27.858;2022-09-09T10:52:13;6.93;;;1.50;;
6033;SDS011;3045;43.226;27.858;2022-09-09T10:54:48;2.13;;;1.45;;
6033;SDS011;3045;43.226;27.858;2022-09-09T10:57:25;2.78;;;1.33;;
6033;SDS011;3045;43.226;27.858;2022-09-09T10:59:58;2.00;;;1.55;;
6033;SDS011;3045;43.226;27.858;2022-09-09T11:02:31;2.85;;;1.60;;
6033;SDS011;3045;43.226;27.858;2022-09-09T11:05:00;3.30;;;1.70;;
6033;SDS011;3045;43.226;27.858;2022-09-09T11:07:33;1.10;;;1.00;;
6033;SDS011;3045;43.226;27.858;2022-09-09T11:10:06;6.63;;;1.45;;
6033;SDS011;3045;43.226;27.858;2022-09-09T11:12:45;2.03;;;1.85;;
6033;SDS011;3045;43.226;27.858;2022-09-09T11:15:19;5.97;;;1.63;;
6033;SDS011;3045;43.226;27.858;2022-09-09T11:17:51;1.92;;;1.35;;
6033;SDS011;3045;43.226;27.858;2022-09-09T11:20:22;2.97;;;1.60;;
6033;SDS011;3045;43.226;27.858;2022-09-09T11:22:50;1.20;;;1.20;;
6033;SDS011;3045;43.226;27.858;2022-09-09T11:25:26;2.35;;;1.55;;
6033;SDS011;3045;43.226;27.858;2022-09-09T11:28:06;1.45;;;1.30;;
6033;SDS011;3045;43.226;27.858;2022-09-09T11:30:54;2.10;;;1.50;;
6033;SDS011;3045;43.226;27.858;2022-09-09T11:33:34;1.70;;;1.52;;
6033;SDS011;3045;43.226;27.858;2022-09-09T11:36:23;5.72;;;1.58;;
6033;SDS011;3045;43.226;27.858;2022-09-09T11:39:02;4.65;;;1.73;;
6033;SDS011;3045;43.226;27.858;2022-09-09T11:41:49;3.80;;;1.70;;
6033;SDS011;3045;43.226;27.858;2022-09-09T11:44:17;7.22;;;2.13;;
6033;SDS011;3045;43.226;27.858;2022-09-09T11:46:50;2.13;;;1.42;;
6033;SDS011;3045;43.226;27.858;2022-09-09T11:49:25;2.80;;;2.10;;
6033;SDS011;3045;43.226;27.858;2022-09-09T11:51:54;2.85;;;1.45;;
6033;SDS011;3045;43.226;27.858;2022-09-09T11:54:28;2.40;;;1.20;;
6033;SDS011;3045;43.226;27.858;2022-09-09T11:56:57;1.25;;;1.20;;
6033;SDS011;3045;43.226;27.858;2022-09-09T11:59:25;1.83;;;1.73;;
6033;SDS011;3045;43.226;27.858;2022-09-09T12:01:58;2.85;;;1.67;;
6033;SDS011;3045;43.226;27.858;2022-09-09T12:04:28;1.90;;;1.80;;
6033;SDS011;3045;43.226;27.858;2022-09-09T12:07:00;2.05;;;1.58;;
6033;SDS011;3045;43.226;27.858;2022-09-09T12:09:43;1.40;;;1.30;;
6033;SDS011;3045;43.226;27.858;2022-09-09T12:12:26;3.17;;;2.17;;
6033;SDS011;3045;43.226;27.858;2022-09-09T12:14:59;1.92;;;1.38;;
6033;SDS011;3045;43.226;27.858;2022-09-09T12:17:44;1.40;;;1.20;;
6033;SDS011;3045;43.226;27.858;2022-09-09T12:20:14;2.10;;;1.20;;
6033;SDS011;3045;43.226;27.858;2022-09-09T12:25:34;2.63;;;1.65;;
6033;SDS011;3045;43.226;27.858;2022-09-09T12:28:13;5.22;;;1.83;;
6033;SDS011;3045;43.226;27.858;2022-09-09T12:30:47;1.50;;;1.30;;
6033;SDS011;3045;43.226;27.858;2022-09-09T12:33:22;1.35;;;1.25;;
6033;SDS011;3045;43.226;27.858;2022-09-09T12:35:51;4.90;;;1.50;;
6033;SDS011;3045;43.226;27.858;2022-09-09T12:38:22;1.15;;;1.15;;
6033;SDS011;3045;43.226;27.858;2022-09-09T12:40:56;4.35;;;1.48;;
6033;SDS011;3045;43.226;27.858;2022-09-09T12:43:24;2.50;;;1.40;;
6033;SDS011;3045;43.226;27.858;2022-09-09T12:45:53;1.75;;;1.35;;
6033;SDS011;3045;43.226;27.858;2022-09-09T12:48:27;3.20;;;1.75;;
6033;SDS011;3045;43.226;27.858;2022-09-09T12:50:58;3.67;;;1.50;;
6033;SDS011;3045;43.226;27.858;2022-09-09T12:53:26;1.70;;;1.60;;
6033;SDS011;3045;43.226;27.858;2022-09-09T12:55:56;1.75;;;1.65;;
6033;SDS011;3045;43.226;27.858;2022-09-09T12:58:25;2.40;;;1.50;;
6033;SDS011;3045;43.226;27.858;2022-09-09T13:00:54;7.95;;;1.90;;
6033;SDS011;3045;43.226;27.858;2022-09-09T13:03:22;2.22;;;1.30;;
6033;SDS011;3045;43.226;27.858;2022-09-09T13:05:53;4.05;;;1.45;;
6033;SDS011;3045;43.226;27.858;2022-09-09T13:08:24;2.15;;;1.33;;
6033;SDS011;3045;43.226;27.858;2022-09-09T13:10:52;1.15;;;1.05;;
6033;SDS011;3045;43.226;27.858;2022-09-09T13:13:23;3.25;;;1.30;;
6033;SDS011;3045;43.226;27.858;2022-09-09T13:15:55;2.03;;;1.20;;
6033;SDS011;3045;43.226;27.858;2022-09-09T13:18:24;1.80;;;1.55;;
6033;SDS011;3045;43.226;27.858;2022-09-09T13:20:55;2.42;;;1.30;;
6033;SDS011;3045;43.226;27.858;2022-09-09T13:23:25;1.63;;;1.50;;
6033;SDS011;3045;43.226;27.858;2022-09-09T13:25:55;1.65;;;1.52;;
6033;SDS011;3045;43.226;27.858;2022-09-09T13:28:24;2.03;;;1.50;;
6033;SDS011;3045;43.226;27.858;2022-09-09T13:30:56;2.45;;;1.75;;
6033;SDS011;3045;43.226;27.858;2022-09-09T13:33:29;1.27;;;1.17;;
6033;SDS011;3045;43.226;27.858;2022-09-09T13:35:59;1.48;;;1.38;;
6033;SDS011;3045;43.226;27.858;2022-09-09T13:38:29;2.47;;;1.60;;
6033;SDS011;3045;43.226;27.858;2022-09-09T13:41:00;2.55;;;2.08;;
6033;SDS011;3045;43.226;27.858;2022-09-09T13:43:30;6.07;;;2.25;;
6033;SDS011;3045;43.226;27.858;2022-09-09T13:46:00;5.85;;;2.22;;
6033;SDS011;3045;43.226;27.858;2022-09-09T13:48:28;2.33;;;2.13;;
6033;SDS011;3045;43.226;27.858;2022-09-09T13:50:59;4.78;;;2.10;;
6033;SDS011;3045;43.226;27.858;2022-09-09T13:53:28;4.72;;;2.33;;
6033;SDS011;3045;43.226;27.858;2022-09-09T13:55:55;6.88;;;2.75;;
6033;SDS011;3045;43.226;27.858;2022-09-09T13:58:23;2.40;;;2.30;;
6033;SDS011;3045;43.226;27.858;2022-09-09T14:00:51;2.67;;;2.58;;
6033;SDS011;3045;43.226;27.858;2022-09-09T14:03:19;2.25;;;2.15;;
6033;SDS011;3045;43.226;27.858;2022-09-09T14:05:46;2.90;;;2.70;;
6033;SDS011;3045;43.226;27.858;2022-09-09T14:08:18;4.10;;;2.70;;
6033;SDS011;3045;43.226;27.858;2022-09-09T14:10:48;6.13;;;2.90;;
6033;SDS011;3045;43.226;27.858;2022-09-09T14:13:16;2.83;;;2.72;;
6033;SDS011;3045;43.226;27.858;2022-09-09T14:15:43;3.67;;;3.15;;
6033;SDS011;3045;43.226;27.858;2022-09-09T14:18:11;3.13;;;2.97;;
6033;SDS011;3045;43.226;27.858;2022-09-09T14:20:39;3.92;;;2.95;;
6033;SDS011;3045;43.226;27.858;2022-09-09T14:23:08;4.15;;;2.88;;
6033;SDS011;3045;43.226;27.858;2022-09-09T14:25:38;3.17;;;3.08;;
6033;SDS011;3045;43.226;27.858;2022-09-09T14:28:07;3.50;;;3.40;;
6033;SDS011;3045;43.226;27.858;2022-09-09T14:30:36;3.60;;;3.17;;
6033;SDS011;3045;43.226;27.858;2022-09-09T14:33:03;3.35;;;3.10;;
6033;SDS011;3045;43.226;27.858;2022-09-09T14:35:30;3.40;;;3.25;;
6033;SDS011;3045;43.226;27.858;2022-09-09T14:37:58;3.38;;;3.17;;
6033;SDS011;3045;43.226;27.858;2022-09-09T14:40:26;3.17;;;2.97;;
6033;SDS011;3045;43.226;27.858;2022-09-09T14:42:54;2.70;;;2.60;;
6033;SDS011;3045;43.226;27.858;2022-09-09T14:45:21;5.43;;;3.30;;
6033;SDS011;3045;43.226;27.858;2022-09-09T14:47:49;3.05;;;2.75;;
6033;SDS011;3045;43.226;27.858;2022-09-09T14:50:16;2.67;;;2.58;;
6033;SDS011;3045;43.226;27.858;2022-09-09T14:52:43;2.90;;;2.80;;
6033;SDS011;3045;43.226;27.858;2022-09-09T14:55:10;3.28;;;2.95;;
6033;SDS011;3045;43.226;27.858;2022-09-09T14:57:37;3.13;;;2.92;;
6033;SDS011;3045;43.226;27.858;2022-09-09T15:00:07;2.80;;;2.60;;
6033;SDS011;3045;43.226;27.858;2022-09-09T15:02:35;2.65;;;2.55;;
6033;SDS011;3045;43.226;27.858;2022-09-09T15:05:03;3.47;;;3.22;;
6033;SDS011;3045;43.226;27.858;2022-09-09T15:07:30;3.13;;;2.80;;
6033;SDS011;3045;43.226;27.858;2022-09-09T15:09:59;2.58;;;2.47;;
6033;SDS011;3045;43.226;27.858;2022-09-09T15:12:26;3.05;;;2.85;;
6033;SDS011;3045;43.226;27.858;2022-09-09T15:14:53;2.90;;;2.80;;
6033;SDS011;3045;43.226;27.858;2022-09-09T15:17:22;3.08;;;2.80;;
6033;SDS011;3045;43.226;27.858;2022-09-09T15:19:52;3.08;;;2.67;;
6033;SDS011;3045;43.226;27.858;2022-09-09T15:22:20;3.40;;;3.20;;
6033;SDS011;3045;43.226;27.858;2022-09-09T15:24:47;3.22;;;3.03;;
6033;SDS011;3045;43.226;27.858;2022-09-09T15:27:14;2.90;;;2.80;;
6033;SDS011;3045;43.226;27.858;2022-09-09T15:29:41;4.22;;;3.05;;
6033;SDS011;3045;43.226;27.858;2022-09-09T15:32:09;2.90;;;2.80;;